Time;durP1;ratioP1;P1;durP2;ratioP2;P2;SDS_P1;SDS_P2;PMS_P1;PMS_P2;Temp;Humidity;BMP_temperature;BMP_pressure;BME280_temperature;BME280_humidity;BME280_pressure;Samples;Min_cycle;Max_cycle;Signal;HPM_P1;HPM_P2
2023/04/05 00:01:34;;;;;;;6.95;1.60;;;;;;;;;;4929222;28;20073;-71
2023/04/05 00:04:02;;;;;;;6.20;1.70;;;;;;;;;;4953271;28;20411;-71
2023/04/05 00:06:30;;;;;;;4.75;1.40;;;;;;;;;;4956044;28;20038;-71
2023/04/05 00:09:03;;;;;;;4.85;1.40;;;;;;;;;;4956438;28;20485;-70
2023/04/05 00:11:32;;;;;;;5.55;1.70;;;;;;;;;;4959358;28;20054;-71
2023/04/05 00:14:03;;;;;;;4.65;1.50;;;;;;;;;;4950121;28;20023;-71
2023/04/05 00:16:32;;;;;;;7.65;1.50;;;;;;;;;;4941368;28;20192;-71
2023/04/05 00:19:00;;;;;;;4.93;1.42;;;;;;;;;;4951264;28;20023;-70
2023/04/05 00:21:29;;;;;;;5.65;1.70;;;;;;;;;;4954740;28;20159;-70
2023/04/05 00:24:01;;;;;;;5.78;1.52;;;;;;;;;;4933140;28;20406;-71
2023/04/05 00:26:28;;;;;;;5.72;1.48;;;;;;;;;;4955327;28;20027;-71
2023/04/05 00:28:57;;;;;;;5.72;1.52;;;;;;;;;;4954572;28;20034;-71
2023/04/05 00:31:26;;;;;;;5.72;1.30;;;;;;;;;;4954397;28;20058;-71
2023/04/05 00:33:53;;;;;;;4.88;1.52;;;;;;;;;;4952635;28;20035;-71
2023/04/05 00:36:20;;;;;;;4.88;1.30;;;;;;;;;;4953034;28;20132;-72
2023/04/05 00:38:51;;;;;;;5.30;1.52;;;;;;;;;;4938630;28;20105;-72
2023/04/05 00:41:21;;;;;;;4.10;1.30;;;;;;;;;;4958697;28;20327;-71
2023/04/05 00:43:48;;;;;;;4.60;1.30;;;;;;;;;;4955421;28;20289;-71
2023/04/05 00:46:17;;;;;;;2.90;1.27;;;;;;;;;;4957793;28;20049;-71
2023/04/05 00:48:44;;;;;;;5.28;1.60;;;;;;;;;;4922408;28;20134;-71
2023/04/05 00:51:12;;;;;;;4.38;1.20;;;;;;;;;;4905642;29;20430;-71
2023/04/05 00:53:41;;;;;;;3.83;1.20;;;;;;;;;;4923427;28;20063;-71
2023/04/05 00:56:12;;;;;;;3.38;1.10;;;;;;;;;;4904911;28;20049;-72
2023/04/05 00:58:41;;;;;;;5.65;1.20;;;;;;;;;;4922947;28;20035;-71
2023/04/05 01:01:29;;;;;;;2.70;1.10;;;;;;;;;;4900952;28;20823;-71
2023/04/05 01:04:01;;;;;;;4.93;1.30;;;;;;;;;;4918607;28;20042;-67
2023/04/05 01:06:47;;;;;;;4.35;1.10;;;;;;;;;;4922108;28;20387;-68
2023/04/05 01:09:34;;;;;;;3.85;1.20;;;;;;;;;;4905542;29;20493;-67
2023/04/05 01:12:05;;;;;;;3.80;1.13;;;;;;;;;;4918967;28;20122;-67
2023/04/05 01:14:43;;;;;;;3.05;0.85;;;;;;;;;;4908025;29;20594;-67
2023/04/05 01:17:12;;;;;;;4.15;1.45;;;;;;;;;;4906212;29;20040;-67
2023/04/05 01:19:40;;;;;;;2.33;1.00;;;;;;;;;;4922723;28;20071;-66
2023/04/05 01:22:27;;;;;;;3.05;0.95;;;;;;;;;;4919508;28;20027;-68
2023/04/05 01:25:11;;;;;;;4.45;1.30;;;;;;;;;;4917206;28;20051;-70
2023/04/05 01:28:02;;;;;;;4.20;1.30;;;;;;;;;;4908039;28;20039;-69
2023/04/05 01:30:41;;;;;;;3.97;1.30;;;;;;;;;;4902172;29;20065;-69
2023/04/05 01:33:33;;;;;;;5.72;1.60;;;;;;;;;;4908879;28;20046;-68
2023/04/05 01:36:22;;;;;;;6.05;1.80;;;;;;;;;;4902166;28;20149;-68
2023/04/05 01:38:50;;;;;;;12.23;5.80;;;;;;;;;;4898436;28;20098;-68
2023/04/05 01:41:17;;;;;;;16.42;8.48;;;;;;;;;;4918888;28;20126;-68
2023/04/05 01:43:44;;;;;;;15.38;8.45;;;;;;;;;;4920072;28;20118;-67
2023/04/05 01:46:12;;;;;;;10.90;5.13;;;;;;;;;;4921497;28;20046;-68
2023/04/05 01:48:40;;;;;;;9.57;4.35;;;;;;;;;;4920924;28;20043;-67
2023/04/05 01:51:08;;;;;;;9.50;3.53;;;;;;;;;;4917634;28;20091;-67
2023/04/05 01:53:35;;;;;;;8.50;2.95;;;;;;;;;;4920530;28;20434;-68
2023/04/05 01:56:02;;;;;;;5.75;2.10;;;;;;;;;;4916516;28;20042;-68
2023/04/05 01:58:30;;;;;;;5.68;1.75;;;;;;;;;;4903478;29;20519;-68
2023/04/05 02:00:57;;;;;;;4.63;1.50;;;;;;;;;;4928069;28;20047;-68
2023/04/05 02:03:26;;;;;;;5.78;1.40;;;;;;;;;;4954184;28;20133;-68
2023/04/05 02:05:55;;;;;;;5.90;1.40;;;;;;;;;;4939774;28;20493;-68
2023/04/05 02:08:22;;;;;;;5.30;1.40;;;;;;;;;;4942335;28;20030;-68
2023/04/05 02:10:52;;;;;;;5.40;1.40;;;;;;;;;;4933633;28;20038;-68
2023/04/05 02:13:21;;;;;;;6.07;1.70;;;;;;;;;;4942630;28;20425;-69
2023/04/05 02:15:49;;;;;;;6.22;1.70;;;;;;;;;;4953903;28;20560;-69
2023/04/05 02:18:21;;;;;;;5.88;1.63;;;;;;;;;;4960030;28;20054;-69
2023/04/05 02:21:06;;;;;;;7.18;1.60;;;;;;;;;;4952311;28;20328;-69
2023/04/05 02:23:33;;;;;;;6.18;1.90;;;;;;;;;;4958856;28;20547;-68
2023/04/05 02:26:00;;;;;;;6.72;2.40;;;;;;;;;;4943210;28;20041;-69
2023/04/05 02:28:28;;;;;;;5.97;1.98;;;;;;;;;;4948463;28;20038;-69
2023/04/05 02:30:57;;;;;;;5.90;1.40;;;;;;;;;;4958141;28;20085;-69
2023/04/05 02:33:24;;;;;;;4.15;1.30;;;;;;;;;;4956993;28;20488;-68
2023/04/05 02:35:53;;;;;;;6.30;1.95;;;;;;;;;;4955150;28;20036;-68
2023/04/05 02:38:23;;;;;;;9.27;3.40;;;;;;;;;;4956092;28;20162;-69
2023/04/05 02:40:51;;;;;;;9.73;4.47;;;;;;;;;;4958923;28;20038;-69
2023/04/05 02:43:20;;;;;;;9.80;4.55;;;;;;;;;;4959547;28;20631;-69
2023/04/05 02:45:47;;;;;;;13.40;6.05;;;;;;;;;;4955936;28;20039;-69
2023/04/05 02:48:16;;;;;;;12.65;7.22;;;;;;;;;;4947092;28;20115;-69
2023/04/05 02:50:49;;;;;;;13.35;7.68;;;;;;;;;;4941635;28;20389;-69
2023/04/05 02:53:19;;;;;;;13.25;6.30;;;;;;;;;;4959295;28;20473;-69
2023/04/05 02:55:53;;;;;;;11.48;5.60;;;;;;;;;;4944305;28;20114;-69
2023/04/05 02:58:22;;;;;;;10.23;5.00;;;;;;;;;;4928492;28;20031;-69
2023/04/05 03:00:53;;;;;;;10.93;4.38;;;;;;;;;;4937547;28;20546;-69
2023/04/05 03:03:21;;;;;;;10.10;5.22;;;;;;;;;;4943248;28;20039;-69
2023/04/05 03:05:49;;;;;;;12.18;5.35;;;;;;;;;;4956041;28;20039;-69
2023/04/05 03:08:22;;;;;;;10.98;5.30;;;;;;;;;;4945446;28;20065;-69
2023/04/05 03:10:53;;;;;;;13.02;5.60;;;;;;;;;;4959802;28;20039;-69
2023/04/05 03:13:19;;;;;;;12.23;6.05;;;;;;;;;;4944460;28;20023;-67
2023/04/05 03:15:46;;;;;;;13.02;5.57;;;;;;;;;;4959856;28;20030;-68
2023/04/05 03:18:13;;;;;;;10.02;5.10;;;;;;;;;;4943749;28;20735;-68
2023/04/05 03:20:41;;;;;;;10.43;4.65;;;;;;;;;;4955984;28;20584;-68
2023/04/05 03:23:09;;;;;;;9.63;4.13;;;;;;;;;;4953658;28;20356;-68
2023/04/05 03:25:36;;;;;;;10.32;4.28;;;;;;;;;;4944335;28;20038;-68
2023/04/05 03:28:04;;;;;;;10.05;4.47;;;;;;;;;;4955771;28;20034;-67
2023/04/05 03:30:35;;;;;;;9.70;4.07;;;;;;;;;;4939209;28;20716;-67
2023/04/05 03:33:03;;;;;;;10.48;3.63;;;;;;;;;;4951614;28;20061;-68
2023/04/05 03:35:31;;;;;;;10.15;4.07;;;;;;;;;;4959077;28;20034;-67
2023/04/05 03:37:59;;;;;;;9.20;3.80;;;;;;;;;;4955125;28;20446;-67
2023/04/05 03:40:27;;;;;;;8.50;4.13;;;;;;;;;;4957049;28;20030;-68
2023/04/05 03:42:54;;;;;;;9.18;3.58;;;;;;;;;;4938102;28;20414;-68
2023/04/05 03:45:22;;;;;;;9.88;3.47;;;;;;;;;;4961324;28;20038;-68
2023/04/05 03:47:50;;;;;;;10.60;3.35;;;;;;;;;;4954312;28;20417;-68
2023/04/05 03:50:18;;;;;;;7.32;3.03;;;;;;;;;;4941230;28;20050;-68
2023/04/05 03:52:45;;;;;;;9.32;3.45;;;;;;;;;;4955326;28;20035;-70
2023/04/05 03:55:15;;;;;;;8.45;3.50;;;;;;;;;;4956805;28;20548;-68
2023/04/05 03:57:45;;;;;;;10.52;3.63;;;;;;;;;;4956538;28;20043;-68
2023/04/05 04:00:16;;;;;;;8.98;2.80;;;;;;;;;;4955749;28;20030;-68
2023/04/05 04:02:48;;;;;;;5.57;1.80;;;;;;;;;;4959918;28;20460;-68
2023/04/05 04:05:16;;;;;;;8.48;2.28;;;;;;;;;;4956324;28;20062;-68
2023/04/05 04:07:44;;;;;;;6.70;1.65;;;;;;;;;;4957279;28;20535;-69
2023/04/05 04:10:16;;;;;;;5.72;1.50;;;;;;;;;;4955446;28;20034;-69
2023/04/05 04:12:45;;;;;;;4.88;1.48;;;;;;;;;;4951765;28;20121;-69
2023/04/05 04:15:13;;;;;;;6.78;1.95;;;;;;;;;;4929881;28;20030;-69
2023/04/05 04:17:41;;;;;;;5.32;1.42;;;;;;;;;;4957592;28;20365;-69
2023/04/05 04:20:13;;;;;;;5.80;1.20;;;;;;;;;;4950555;28;20069;-69
2023/04/05 04:22:42;;;;;;;7.55;1.60;;;;;;;;;;4943737;28;20030;-69
2023/04/05 04:25:20;;;;;;;7.43;1.80;;;;;;;;;;4937169;28;20576;-69
2023/04/05 04:27:49;;;;;;;7.70;2.17;;;;;;;;;;4939012;28;20130;-69
2023/04/05 04:30:27;;;;;;;5.47;1.35;;;;;;;;;;4959484;28;20068;-69
2023/04/05 04:32:55;;;;;;;4.75;1.40;;;;;;;;;;4935141;28;20496;-69
2023/04/05 04:35:25;;;;;;;6.50;1.20;;;;;;;;;;4956860;28;20530;-69
2023/04/05 04:37:58;;;;;;;3.75;1.10;;;;;;;;;;4936028;28;20525;-69
2023/04/05 04:40:52;;;;;;;7.07;1.50;;;;;;;;;;4941778;28;20478;-69
2023/04/05 04:43:26;;;;;;;4.53;1.35;;;;;;;;;;4960362;28;20124;-69
2023/04/05 04:45:54;;;;;;;4.03;1.30;;;;;;;;;;4953934;28;20540;-69
2023/04/05 04:48:21;;;;;;;4.72;1.40;;;;;;;;;;4939218;28;20126;-69
2023/04/05 04:50:51;;;;;;;4.93;1.30;;;;;;;;;;4939467;28;20043;-69
2023/04/05 04:53:20;;;;;;;7.25;2.10;;;;;;;;;;4953218;28;20469;-69
2023/04/05 04:55:49;;;;;;;9.02;3.25;;;;;;;;;;4958682;28;20318;-69
2023/04/05 04:58:18;;;;;;;10.65;3.80;;;;;;;;;;4939273;28;20032;-69
2023/04/05 05:00:45;;;;;;;16.90;4.93;;;;;;;;;;4938922;28;20081;-69
2023/04/05 05:03:13;;;;;;;10.45;4.20;;;;;;;;;;4942772;28;20031;-69
2023/04/05 05:05:50;;;;;;;9.57;3.05;;;;;;;;;;4926742;28;20047;-70
2023/04/05 05:08:18;;;;;;;7.55;1.92;;;;;;;;;;4939661;28;20039;-69
2023/04/05 05:10:46;;;;;;;8.40;1.42;;;;;;;;;;4923740;28;20162;-69
2023/04/05 05:13:14;;;;;;;6.28;1.52;;;;;;;;;;4940278;28;20030;-69
2023/04/05 05:15:41;;;;;;;8.32;1.58;;;;;;;;;;4923382;28;20544;-69
2023/04/05 05:18:11;;;;;;;5.85;1.35;;;;;;;;;;4942500;28;20090;-67
2023/04/05 05:20:40;;;;;;;5.22;1.30;;;;;;;;;;4925438;28;20484;-68
2023/04/05 05:23:10;;;;;;;6.10;1.30;;;;;;;;;;4940262;28;20043;-68
2023/04/05 05:25:38;;;;;;;5.13;1.30;;;;;;;;;;4940798;28;20085;-68
2023/04/05 05:28:05;;;;;;;8.95;1.40;;;;;;;;;;4937494;28;20049;-68
2023/04/05 05:30:33;;;;;;;5.53;1.40;;;;;;;;;;4919952;28;20047;-68
2023/04/05 05:33:02;;;;;;;4.82;1.30;;;;;;;;;;4920857;28;20022;-68
2023/04/05 05:35:29;;;;;;;5.80;1.63;;;;;;;;;;4938731;28;20324;-68
2023/04/05 05:37:58;;;;;;;4.15;1.25;;;;;;;;;;4938301;28;20316;-69
2023/04/05 05:40:25;;;;;;;5.43;1.50;;;;;;;;;;4941276;28;20050;-68
2023/04/05 05:42:53;;;;;;;5.40;1.20;;;;;;;;;;4936126;28;20060;-69
2023/04/05 05:45:22;;;;;;;6.32;1.40;;;;;;;;;;4923200;28;20081;-69
2023/04/05 05:47:50;;;;;;;7.35;1.30;;;;;;;;;;4940389;28;20735;-69
2023/04/05 05:50:19;;;;;;;5.72;1.45;;;;;;;;;;4959213;28;20563;-69
2023/04/05 05:52:45;;;;;;;6.03;1.48;;;;;;;;;;4937567;28;20566;-68
2023/04/05 05:55:14;;;;;;;6.35;1.58;;;;;;;;;;4940661;28;20120;-69
2023/04/05 05:57:42;;;;;;;4.38;1.38;;;;;;;;;;4957294;28;20583;-69
2023/04/05 06:00:15;;;;;;;5.95;1.60;;;;;;;;;;4941470;28;20041;-69
2023/04/05 06:02:44;;;;;;;6.03;1.60;;;;;;;;;;4962413;28;20050;-67
2023/04/05 06:05:11;;;;;;;5.68;1.63;;;;;;;;;;4953767;28;20037;-67
2023/04/05 06:07:39;;;;;;;7.65;1.73;;;;;;;;;;4941141;28;20586;-69
2023/04/05 06:10:12;;;;;;;6.25;1.45;;;;;;;;;;4933350;28;20026;-70
2023/04/05 06:12:38;;;;;;;5.50;1.38;;;;;;;;;;4965686;28;20023;-69
2023/04/05 06:15:07;;;;;;;4.97;1.50;;;;;;;;;;4936771;28;20511;-69
2023/04/05 06:17:40;;;;;;;8.68;2.35;;;;;;;;;;4928854;28;20081;-68
2023/04/05 06:20:10;;;;;;;8.35;1.80;;;;;;;;;;4957830;28;20073;-68
2023/04/05 06:22:41;;;;;;;6.57;2.00;;;;;;;;;;4957363;28;20126;-68
2023/04/05 06:25:09;;;;;;;9.13;2.10;;;;;;;;;;4953569;28;20170;-68
2023/04/05 06:27:36;;;;;;;5.28;1.50;;;;;;;;;;4938645;28;20038;-68
2023/04/05 06:30:03;;;;;;;10.20;2.03;;;;;;;;;;4952126;28;20097;-68
2023/04/05 06:32:31;;;;;;;7.70;2.03;;;;;;;;;;4958454;28;20018;-68
2023/04/05 06:35:00;;;;;;;6.65;1.60;;;;;;;;;;4951496;28;20026;-68
2023/04/05 06:37:29;;;;;;;6.68;1.88;;;;;;;;;;4943288;28;20085;-68
2023/04/05 06:39:58;;;;;;;7.30;2.00;;;;;;;;;;4952444;28;20366;-70
2023/04/05 06:42:25;;;;;;;7.35;2.03;;;;;;;;;;4957435;28;20460;-70
2023/04/05 06:44:53;;;;;;;5.97;1.75;;;;;;;;;;4956874;28;20035;-70
2023/04/05 06:47:22;;;;;;;5.20;1.65;;;;;;;;;;4960109;28;20571;-67
2023/04/05 06:49:50;;;;;;;7.93;1.92;;;;;;;;;;4954042;28;20496;-68
2023/04/05 06:52:17;;;;;;;9.65;2.30;;;;;;;;;;4938238;28;20031;-68
2023/04/05 06:54:45;;;;;;;6.28;1.67;;;;;;;;;;4938582;28;20324;-67
2023/04/05 06:57:12;;;;;;;6.38;1.95;;;;;;;;;;4956078;28;20429;-69
2023/04/05 06:59:40;;;;;;;6.97;1.95;;;;;;;;;;4960254;28;20159;-69
2023/04/05 07:02:08;;;;;;;6.00;1.77;;;;;;;;;;4940587;28;20038;-69
2023/04/05 07:04:36;;;;;;;8.65;2.35;;;;;;;;;;4947125;28;20128;-69
2023/04/05 07:07:05;;;;;;;6.45;1.85;;;;;;;;;;4957064;28;20031;-69
2023/04/05 07:09:36;;;;;;;5.35;1.60;;;;;;;;;;4961274;28;20054;-69
2023/04/05 07:12:03;;;;;;;6.38;1.58;;;;;;;;;;4923770;28;20603;-69
2023/04/05 07:14:32;;;;;;;5.13;1.60;;;;;;;;;;4962621;28;20416;-69
2023/04/05 07:17:01;;;;;;;9.65;2.22;;;;;;;;;;4940258;28;20121;-68
2023/04/05 07:19:28;;;;;;;11.02;2.22;;;;;;;;;;4946173;28;20038;-69
2023/04/05 07:21:57;;;;;;;11.15;2.33;;;;;;;;;;4956634;28;20062;-69
2023/04/05 07:24:26;;;;;;;11.82;2.85;;;;;;;;;;4959921;28;20042;-69
2023/04/05 07:26:55;;;;;;;12.45;3.30;;;;;;;;;;4955585;28;20062;-69
2023/04/05 07:29:23;;;;;;;19.08;3.20;;;;;;;;;;4960232;28;20070;-69
2023/04/05 07:31:51;;;;;;;10.52;3.33;;;;;;;;;;4942951;28;20129;-68
2023/04/05 07:34:18;;;;;;;11.73;2.90;;;;;;;;;;4958834;28;20062;-69
2023/04/05 07:36:49;;;;;;;11.27;3.10;;;;;;;;;;4957454;28;20026;-69
2023/04/05 07:39:17;;;;;;;12.38;3.03;;;;;;;;;;4943349;28;20115;-69
2023/04/05 07:41:47;;;;;;;11.77;3.20;;;;;;;;;;4962262;28;20041;-69
2023/04/05 07:44:16;;;;;;;9.93;2.67;;;;;;;;;;4956397;28;20042;-68
2023/04/05 07:46:45;;;;;;;11.60;3.60;;;;;;;;;;4961785;28;20038;-68
2023/04/05 07:49:12;;;;;;;13.02;4.55;;;;;;;;;;4943165;28;20499;-68
2023/04/05 07:51:41;;;;;;;15.40;6.80;;;;;;;;;;4961514;28;20088;-68
2023/04/05 07:54:10;;;;;;;16.88;7.78;;;;;;;;;;4956612;28;20085;-69
2023/04/05 07:56:39;;;;;;;15.40;6.07;;;;;;;;;;4958795;28;20050;-69
2023/04/05 07:59:07;;;;;;;12.27;4.25;;;;;;;;;;4942426;28;20819;-71
2023/04/05 08:01:34;;;;;;;13.05;4.55;;;;;;;;;;4957641;28;20796;-69
2023/04/05 08:04:02;;;;;;;9.70;2.83;;;;;;;;;;4953462;28;20141;-69
2023/04/05 08:06:30;;;;;;;12.15;3.10;;;;;;;;;;4960871;28;20034;-68
2023/04/05 08:08:59;;;;;;;9.88;2.60;;;;;;;;;;4959334;28;20436;-69
2023/04/05 08:11:26;;;;;;;7.60;2.10;;;;;;;;;;4942348;28;20031;-69
2023/04/05 08:13:54;;;;;;;9.88;2.33;;;;;;;;;;4955588;28;20034;-69
2023/04/05 08:16:21;;;;;;;9.65;1.95;;;;;;;;;;4956808;28;20019;-69
2023/04/05 08:18:49;;;;;;;6.57;2.00;;;;;;;;;;4953997;28;20034;-68
2023/04/05 08:21:17;;;;;;;7.45;1.88;;;;;;;;;;4959532;28;20074;-68
2023/04/05 08:23:45;;;;;;;8.40;2.00;;;;;;;;;;4958346;28;20058;-68
2023/04/05 08:26:13;;;;;;;11.50;2.00;;;;;;;;;;4958392;28;20227;-69
2023/04/05 08:28:40;;;;;;;5.93;1.50;;;;;;;;;;4959376;28;20340;-69
2023/04/05 08:31:09;;;;;;;5.63;1.50;;;;;;;;;;4953353;28;20120;-69
2023/04/05 08:33:37;;;;;;;4.72;1.33;;;;;;;;;;4944217;28;20042;-68
2023/04/05 08:36:08;;;;;;;5.60;1.38;;;;;;;;;;4954581;28;20477;-68
2023/04/05 08:38:37;;;;;;;4.60;1.20;;;;;;;;;;4928528;28;20058;-68
2023/04/05 08:41:10;;;;;;;6.03;1.60;;;;;;;;;;4935331;28;20069;-68
2023/04/05 08:43:56;;;;;;;7.15;2.10;;;;;;;;;;4943650;28;20038;-69
2023/04/05 08:46:24;;;;;;;7.05;1.70;;;;;;;;;;4957660;28;20030;-70
2023/04/05 08:48:55;;;;;;;9.00;1.80;;;;;;;;;;4952011;28;20046;-67
2023/04/05 08:51:24;;;;;;;9.02;1.92;;;;;;;;;;4930253;28;20045;-69
2023/04/05 08:53:53;;;;;;;7.03;1.70;;;;;;;;;;4958721;28;20049;-68
2023/04/05 08:56:25;;;;;;;7.28;1.90;;;;;;;;;;4956542;28;20022;-68
2023/04/05 08:59:04;;;;;;;7.70;1.42;;;;;;;;;;4951673;28;20460;-68
2023/04/05 09:01:33;;;;;;;4.93;1.45;;;;;;;;;;4953730;28;20395;-69
2023/04/05 09:04:09;;;;;;;4.30;1.13;;;;;;;;;;4938097;28;20332;-68
2023/04/05 09:06:36;;;;;;;11.18;1.50;;;;;;;;;;4941114;28;20030;-68
2023/04/05 09:09:08;;;;;;;7.68;1.67;;;;;;;;;;4953007;28;20515;-68
2023/04/05 09:11:35;;;;;;;4.85;1.17;;;;;;;;;;4939325;28;20123;-70
2023/04/05 09:14:08;;;;;;;4.13;1.00;;;;;;;;;;4952775;28;20026;-68
2023/04/05 09:16:42;;;;;;;5.35;1.20;;;;;;;;;;4938062;28;20509;-68
2023/04/05 09:19:11;;;;;;;6.63;1.20;;;;;;;;;;4953765;28;20034;-68
2023/04/05 09:22:04;;;;;;;6.60;1.50;;;;;;;;;;4934337;28;20035;-69
2023/04/05 09:24:35;;;;;;;7.75;1.40;;;;;;;;;;4937175;28;20540;-68
2023/04/05 09:27:13;;;;;;;4.57;1.25;;;;;;;;;;4933028;28;20108;-68
2023/04/05 09:29:43;;;;;;;6.28;1.08;;;;;;;;;;4955987;28;20066;-68
2023/04/05 09:32:11;;;;;;;5.38;1.00;;;;;;;;;;4958253;28;20109;-70
2023/04/05 09:34:40;;;;;;;5.97;1.50;;;;;;;;;;4941565;28;20038;-69
2023/04/05 09:37:29;;;;;;;7.10;1.65;;;;;;;;;;4938595;28;20508;-69
2023/04/05 09:40:05;;;;;;;5.45;1.35;;;;;;;;;;4949172;28;20478;-68
2023/04/05 09:42:33;;;;;;;9.27;1.88;;;;;;;;;;4953915;28;20027;-69
2023/04/05 09:45:03;;;;;;;6.15;1.50;;;;;;;;;;4953607;28;20030;-68
2023/04/05 09:47:31;;;;;;;7.88;1.55;;;;;;;;;;4957305;28;20057;-68
2023/04/05 09:50:25;;;;;;;4.65;1.30;;;;;;;;;;4949330;28;20149;-69
2023/04/05 09:53:18;;;;;;;5.25;1.27;;;;;;;;;;4951174;28;20050;-70
2023/04/05 09:55:46;;;;;;;4.50;1.05;;;;;;;;;;4953104;28;20444;-68
2023/04/05 09:58:14;;;;;;;6.47;1.50;;;;;;;;;;4944216;28;20041;-68
2023/04/05 10:00:53;;;;;;;5.68;1.38;;;;;;;;;;4943638;28;20023;-68
2023/04/05 10:03:21;;;;;;;6.07;1.40;;;;;;;;;;4941336;28;20039;-69
2023/04/05 10:05:55;;;;;;;5.53;1.35;;;;;;;;;;4951356;28;20524;-68
2023/04/05 10:08:23;;;;;;;8.98;1.58;;;;;;;;;;4942668;28;20030;-68
2023/04/05 10:10:51;;;;;;;5.20;1.33;;;;;;;;;;4936862;28;20141;-68
2023/04/05 10:13:19;;;;;;;4.40;1.10;;;;;;;;;;4941132;28;20050;-68
2023/04/05 10:15:50;;;;;;;6.57;1.60;;;;;;;;;;4938642;28;20042;-68
2023/04/05 10:18:29;;;;;;;5.30;1.27;;;;;;;;;;4955403;28;21186;-68
2023/04/05 10:20:57;;;;;;;5.07;1.00;;;;;;;;;;4954243;28;20419;-68
2023/04/05 10:23:25;;;;;;;5.90;1.23;;;;;;;;;;4957571;28;20381;-71
2023/04/05 10:25:54;;;;;;;6.18;1.25;;;;;;;;;;4936021;28;20031;-69
2023/04/05 10:28:33;;;;;;;5.38;1.25;;;;;;;;;;4954371;28;20709;-68
2023/04/05 10:31:19;;;;;;;8.93;1.35;;;;;;;;;;4953871;28;20498;-68
2023/04/05 10:33:59;;;;;;;4.25;1.10;;;;;;;;;;4942727;28;20039;-69
2023/04/05 10:36:41;;;;;;;5.82;1.45;;;;;;;;;;4944802;28;20409;-69
2023/04/05 10:39:12;;;;;;;4.03;1.20;;;;;;;;;;4935092;28;20591;-67
2023/04/05 10:41:47;;;;;;;9.90;1.48;;;;;;;;;;4956513;28;20153;-68
2023/04/05 10:44:16;;;;;;;3.75;1.00;;;;;;;;;;4962467;28;20035;-67
2023/04/05 10:46:55;;;;;;;4.32;1.10;;;;;;;;;;4960514;28;20034;-68
2023/04/05 10:49:40;;;;;;;6.95;1.38;;;;;;;;;;4957230;28;20038;-68
2023/04/05 10:52:08;;;;;;;8.30;1.48;;;;;;;;;;4956005;28;20539;-68
2023/04/05 10:54:35;;;;;;;4.43;1.20;;;;;;;;;;4963266;28;20042;-69
2023/04/05 10:57:05;;;;;;;13.50;1.63;;;;;;;;;;4956319;28;20034;-68
2023/04/05 10:59:33;;;;;;;6.40;1.23;;;;;;;;;;4945897;28;20046;-68
2023/04/05 11:02:02;;;;;;;5.68;1.30;;;;;;;;;;4956019;28;20038;-68
2023/04/05 11:04:33;;;;;;;4.90;1.30;;;;;;;;;;4948174;28;20034;-69
2023/04/05 11:07:21;;;;;;;5.10;1.40;;;;;;;;;;4934925;28;20027;-67
2023/04/05 11:10:05;;;;;;;7.57;1.70;;;;;;;;;;4941010;28;20472;-67
2023/04/05 11:12:52;;;;;;;6.00;1.40;;;;;;;;;;4961003;28;20057;-67
2023/04/05 11:15:31;;;;;;;7.40;1.33;;;;;;;;;;4961137;28;20167;-67
2023/04/05 11:18:20;;;;;;;5.88;1.73;;;;;;;;;;4952741;28;20039;-67
2023/04/05 11:21:06;;;;;;;6.03;1.40;;;;;;;;;;4950933;28;20581;-67
2023/04/05 11:23:53;;;;;;;5.10;1.30;;;;;;;;;;4962209;28;20437;-67
2023/04/05 11:26:21;;;;;;;4.65;1.33;;;;;;;;;;4954686;28;20038;-67
2023/04/05 11:28:48;;;;;;;5.50;1.40;;;;;;;;;;4950843;28;20547;-67
2023/04/05 11:31:25;;;;;;;4.00;1.20;;;;;;;;;;4944360;28;20476;-67
2023/04/05 11:34:09;;;;;;;;;;;;;;;;;;4943326;28;20118;-68
2023/04/05 11:36:44;;;;;;;6.88;1.40;;;;;;;;;;4959522;28;19961;-67
2023/04/05 11:39:24;;;;;;;4.45;1.23;;;;;;;;;;4941433;28;20460;-67
2023/04/05 11:42:05;;;;;;;4.05;1.30;;;;;;;;;;4942123;28;20591;-68
2023/04/05 11:44:51;;;;;;;6.18;1.33;;;;;;;;;;4944091;28;20163;-68
2023/04/05 11:47:20;;;;;;;5.57;1.35;;;;;;;;;;4954782;28;20042;-68
2023/04/05 11:49:52;;;;;;;4.15;1.10;;;;;;;;;;4926081;28;20039;-68
2023/04/05 11:52:20;;;;;;;5.78;1.30;;;;;;;;;;4944817;28;20040;-68
2023/04/05 11:54:48;;;;;;;6.38;1.50;;;;;;;;;;4953420;28;20027;-68
2023/04/05 11:57:27;;;;;;;7.15;1.80;;;;;;;;;;4958404;28;20033;-68
2023/04/05 11:59:55;;;;;;;7.18;1.77;;;;;;;;;;4951979;28;20855;-67
2023/04/05 12:02:21;;;;;;;6.50;1.70;;;;;;;;;;4939716;28;20038;-69
2023/04/05 12:04:57;;;;;;;6.00;1.73;;;;;;;;;;4932502;28;20444;-67
2023/04/05 12:07:28;;;;;;;9.40;2.00;;;;;;;;;;4955378;28;20726;-67
2023/04/05 12:10:12;;;;;;;6.05;1.42;;;;;;;;;;4936185;28;20500;-67
2023/04/05 12:12:42;;;;;;;7.57;2.00;;;;;;;;;;4954916;28;20039;-68
2023/04/05 12:15:13;;;;;;;9.20;1.92;;;;;;;;;;4936403;28;20050;-68
2023/04/05 12:17:53;;;;;;;6.95;2.08;;;;;;;;;;4941952;28;20444;-68
2023/04/05 12:20:24;;;;;;;7.95;1.90;;;;;;;;;;4951754;28;20088;-67
2023/04/05 12:22:53;;;;;;;6.32;1.60;;;;;;;;;;4934037;28;20049;-67
2023/04/05 12:25:21;;;;;;;7.85;1.70;;;;;;;;;;4941611;28;20539;-68
2023/04/05 12:27:49;;;;;;;9.90;1.83;;;;;;;;;;4948233;28;20330;-68
2023/04/05 12:30:18;;;;;;;7.93;2.10;;;;;;;;;;4956217;28;20395;-68
2023/04/05 12:32:52;;;;;;;8.77;3.65;;;;;;;;;;4940912;28;20049;-68
2023/04/05 12:35:34;;;;;;;11.40;4.95;;;;;;;;;;4953854;28;20053;-68
2023/04/05 12:38:05;;;;;;;9.07;3.97;;;;;;;;;;4954432;28;20065;-68
2023/04/05 12:40:36;;;;;;;8.00;2.67;;;;;;;;;;4957729;28;20357;-68
2023/04/05 12:43:06;;;;;;;8.45;2.30;;;;;;;;;;4951288;28;20268;-68
2023/04/05 12:45:42;;;;;;;8.90;2.03;;;;;;;;;;4935783;28;20075;-67
2023/04/05 12:48:12;;;;;;;8.18;1.92;;;;;;;;;;4952056;28;20034;-67
2023/04/05 12:50:53;;;;;;;7.43;1.60;;;;;;;;;;4958398;28;20061;-68
2023/04/05 12:53:30;;;;;;;10.27;2.10;;;;;;;;;;4942331;28;20767;-66
2023/04/05 12:55:58;;;;;;;8.95;2.55;;;;;;;;;;4948785;28;20427;-67
2023/04/05 12:58:35;;;;;;;8.27;1.83;;;;;;;;;;4950025;28;20026;-69
2023/04/05 13:01:03;;;;;;;6.30;1.80;;;;;;;;;;4952050;28;20034;-68
2023/04/05 13:03:31;;;;;;;6.78;2.08;;;;;;;;;;4957089;28;20230;-68
2023/04/05 13:05:58;;;;;;;7.68;2.30;;;;;;;;;;4949927;28;20031;-69
2023/04/05 13:08:26;;;;;;;5.97;1.55;;;;;;;;;;4951724;28;20109;-68
2023/04/05 13:10:55;;;;;;;10.38;2.20;;;;;;;;;;4949675;28;20041;-67
2023/04/05 13:13:25;;;;;;;6.50;1.50;;;;;;;;;;4954272;28;20306;-67
2023/04/05 13:15:51;;;;;;;7.95;1.75;;;;;;;;;;4951001;28;20051;-68
2023/04/05 13:18:20;;;;;;;9.82;1.95;;;;;;;;;;4952298;28;20096;-68
2023/04/05 13:20:47;;;;;;;7.22;1.73;;;;;;;;;;4951258;28;20145;-68
2023/04/05 13:23:13;;;;;;;8.65;1.80;;;;;;;;;;4940421;28;20041;-67
2023/04/05 13:25:42;;;;;;;7.63;1.65;;;;;;;;;;4953915;28;20386;-67
2023/04/05 13:28:09;;;;;;;7.47;2.30;;;;;;;;;;4931584;28;20472;-68
2023/04/05 13:30:37;;;;;;;8.25;2.67;;;;;;;;;;4956398;28;20248;-67
2023/04/05 13:33:05;;;;;;;8.20;2.72;;;;;;;;;;4932987;28;20053;-67
2023/04/05 13:35:33;;;;;;;11.15;3.17;;;;;;;;;;4947679;28;20066;-68
2023/04/05 13:38:01;;;;;;;10.27;3.33;;;;;;;;;;4946876;28;20035;-67
2023/04/05 13:40:31;;;;;;;10.13;2.55;;;;;;;;;;4937661;28;20039;-68
2023/04/05 13:42:58;;;;;;;8.80;2.25;;;;;;;;;;4938537;28;20023;-67
2023/04/05 13:45:31;;;;;;;8.15;2.05;;;;;;;;;;4951497;28;20030;-68
2023/04/05 13:47:59;;;;;;;10.35;2.30;;;;;;;;;;4950783;28;20829;-68
2023/04/05 13:50:26;;;;;;;8.15;2.05;;;;;;;;;;4954993;28;20488;-68
2023/04/05 13:52:54;;;;;;;7.75;1.73;;;;;;;;;;4946528;28;20132;-68
2023/04/05 13:55:21;;;;;;;7.07;1.88;;;;;;;;;;4939171;28;20030;-68
2023/04/05 13:57:50;;;;;;;5.15;1.45;;;;;;;;;;4944718;28;20451;-67
2023/04/05 14:00:17;;;;;;;6.60;1.40;;;;;;;;;;4938081;28;20032;-68
2023/04/05 14:02:45;;;;;;;6.47;1.40;;;;;;;;;;4955003;28;20066;-67
2023/04/05 14:05:14;;;;;;;7.50;1.60;;;;;;;;;;4956400;28;20573;-68
2023/04/05 14:07:42;;;;;;;6.20;1.23;;;;;;;;;;4956045;28;20085;-68
2023/04/05 14:10:10;;;;;;;5.05;1.25;;;;;;;;;;4953132;28;20042;-67
2023/04/05 14:12:38;;;;;;;9.27;1.42;;;;;;;;;;4953083;28;20035;-68
2023/04/05 14:15:04;;;;;;;5.25;1.30;;;;;;;;;;4950075;28;20829;-67
2023/04/05 14:17:33;;;;;;;6.97;1.30;;;;;;;;;;4956806;28;20030;-67
2023/04/05 14:20:01;;;;;;;8.90;1.55;;;;;;;;;;4949857;28;20118;-69
2023/04/05 14:22:28;;;;;;;6.10;1.40;;;;;;;;;;4939274;28;20045;-69
2023/04/05 14:24:57;;;;;;;8.20;2.10;;;;;;;;;;4940303;28;20125;-67
2023/04/05 14:27:27;;;;;;;7.30;1.73;;;;;;;;;;4938636;28;20617;-69
2023/04/05 14:29:56;;;;;;;7.18;1.80;;;;;;;;;;4939996;28;20460;-67
2023/04/05 14:32:23;;;;;;;5.70;1.45;;;;;;;;;;4941538;28;20485;-69
2023/04/05 14:34:52;;;;;;;4.90;1.20;;;;;;;;;;4952264;28;20137;-67
2023/04/05 14:37:21;;;;;;;7.97;1.80;;;;;;;;;;4954565;28;20030;-69
2023/04/05 14:39:50;;;;;;;10.50;1.90;;;;;;;;;;4937781;28;20034;-68
2023/04/05 14:42:20;;;;;;;7.53;1.70;;;;;;;;;;4957903;28;20084;-67
2023/04/05 14:44:56;;;;;;;7.78;1.92;;;;;;;;;;4956489;28;20155;-69
2023/04/05 14:47:23;;;;;;;7.90;1.65;;;;;;;;;;4959242;28;20065;-67
2023/04/05 14:49:51;;;;;;;10.68;2.10;;;;;;;;;;4958937;28;20041;-67
2023/04/05 14:52:19;;;;;;;12.18;2.53;;;;;;;;;;4940163;28;20065;-68
2023/04/05 14:54:46;;;;;;;15.02;2.90;;;;;;;;;;4958335;28;20026;-69
2023/04/05 14:57:14;;;;;;;10.50;4.07;;;;;;;;;;4959666;28;20105;-68
2023/04/05 14:59:42;;;;;;;14.20;4.53;;;;;;;;;;4958665;28;20129;-69
2023/04/05 15:02:10;;;;;;;8.65;2.95;;;;;;;;;;4957219;28;20035;-69